Ana Sayfa
METAR-TAF:

METAR-TAF

Havaalanları :

Bellaire, Michigan, Amerika Birleşik Devletleri

Enlem: 44-59-18N, Boylam: 085-11-54W, yükseklik: 190 m

Güncel hava durumu gözlemi

Rapor saat 23:15 UTC de 6 dakika önce yapıldı.
Sakin rüzgar
Sıcaklık 0°C
Nem 86%
Basınç 1009 hPa
Görüş mesafesi: 11.3 km
1600 ft yükseklikte çok bulutlu

METAR: KACB 262315Z AUTO 00000KT 7SM OVC016 00/M02 A2979 RMK AO2 T00011018

Saat: 18:21 (23:21 UTC)


TAF: eksik

4.000'den fazla havaalanı için hava durumu gözlemleri ve tahminleri (METAR ve TAF raporları).

Kullanılabilir istasyonlar harita üzerinde sarı ve kırmızı noktalarla gösterilir.

İstasyonun adını görmek için fareyi noktanın üzerinde gezdirin.

Sonrasında hava gözlem ve tahminlerini görmek için tıklayın.

Haritayı değiştirmek için: yaklaştırmak için siyah artı işaretli yeşil düğmeye ve uzaklaştırmak için de eksi işaretli düğmeye hızla tıklayın; bitişik haritalar için yeşil okları kullanın.


METAR-TAF: